Time;durP1;ratioP1;P1;durP2;ratioP2;P2;SDS_P1;SDS_P2;PMS_P1;PMS_P2;Temp;Humidity;BMP_temperature;BMP_pressure;BME280_temperature;BME280_humidity;BME280_pressure;Samples;Min_cycle;Max_cycle;Signal;HPM_P1;HPM_P2
2022/10/14 00:01:14;;;;;;;;;;;;;;;12.23;64.70;100873.72;5070796;28;19985;-30
2022/10/14 00:03:40;;;;;;;;;;;;;;;12.21;64.62;100870.22;5071584;28;20291;-30
2022/10/14 00:06:12;;;;;;;;;;;;;;;12.23;64.62;100878.13;5070964;28;19927;-30
2022/10/14 00:08:37;;;;;;;;;;;;;;;12.21;64.74;100872.88;5070811;28;20283;-30
2022/10/14 00:11:06;;;;;;;;;;;;;;;12.19;64.75;100872.88;5070644;28;19912;-30
2022/10/14 00:13:32;;;;;;;;;;;;;;;12.19;64.42;100867.59;5051689;28;19919;-30
2022/10/14 00:15:57;;;;;;;;;;;;;;;12.18;64.48;100865.81;5071455;28;20456;-30
2022/10/14 00:18:22;;;;;;;;;;;;;;;12.17;64.45;100864.09;5069156;28;19913;-30
2022/10/14 00:20:54;;;;;;;;;;;;;;;12.19;64.81;100862.31;5066902;28;19919;-30
2022/10/14 00:23:22;;;;;;;;;;;;;;;12.18;64.97;100868.47;5068467;28;19916;-30
2022/10/14 00:25:48;;;;;;;;;;;;;;;12.19;65.07;100862.31;5068760;28;19968;-30
2022/10/14 00:28:13;;;;;;;;;;;;;;;12.17;65.08;100866.72;5067380;28;19963;-30
2022/10/14 00:30:38;;;;;;;;;;;;;;;12.17;64.68;100869.38;5070605;28;19952;-30
2022/10/14 00:33:03;;;;;;;;;;;;;;;12.15;64.79;100857.97;5051181;28;19956;-30
2022/10/14 00:35:31;;;;;;;;;;;;;;;12.16;64.94;100865.00;5069363;28;19966;-30
2022/10/14 00:37:59;;;;;;;;;;;;;;;12.15;65.04;100859.72;5067588;28;19913;-30
2022/10/14 00:40:25;;;;;;;;;;;;;;;12.15;64.90;100865.91;5065228;28;19912;-30
2022/10/14 00:42:50;;;;;;;;;;;;;;;12.14;65.09;100866.75;5052371;28;19974;-30
2022/10/14 00:45:19;;;;;;;;;;;;;;;12.14;64.70;100866.75;5068105;28;19912;-30
2022/10/14 00:47:44;;;;;;;;;;;;;;;12.14;64.98;100863.25;5067380;28;19958;-30
2022/10/14 00:50:09;;;;;;;;;;;;;;;12.13;64.74;100862.38;5070009;28;19947;-30
2022/10/14 00:52:35;;;;;;;;;;;;;;;12.12;64.67;100871.22;5070210;28;19920;-30
2022/10/14 00:55:01;;;;;;;;;;;;;;;12.13;64.60;100864.13;5070043;28;19923;-30
2022/10/14 00:57:26;;;;;;;;;;;;;;;12.12;64.68;100868.56;5059192;28;19939;-30
2022/10/14 00:59:52;;;;;;;;;;;;;;;12.12;64.62;100857.09;5065987;28;19916;-30
2022/10/14 01:02:17;;;;;;;;;;;;;;;12.12;64.73;100863.28;5050737;28;19916;-30
2022/10/14 01:04:42;;;;;;;;;;;;;;;12.12;64.54;100865.03;5070777;28;19913;-30
2022/10/14 01:07:26;;;;;;;;;;;;;;;12.12;64.72;100862.41;5051851;28;19916;-30
2022/10/14 01:10:08;;;;;;;;;;;;;;;12.10;64.51;100857.13;5069974;28;19912;-30
2022/10/14 01:12:52;;;;;;;;;;;;;;;12.10;64.69;100854.47;5051191;28;19921;-30
2022/10/14 01:15:21;;;;;;;;;;;;;;;12.12;64.46;100865.03;5066459;28;20320;-30
2022/10/14 01:18:02;;;;;;;;;;;;;;;12.11;64.47;100860.66;5055324;28;20000;-30
2022/10/14 01:20:45;;;;;;;;;;;;;;;12.11;64.56;100858.91;5075203;28;20335;-30
2022/10/14 01:23:16;;;;;;;;;;;;;;;12.12;64.42;100863.28;5061960;28;19946;-30
2022/10/14 01:25:50;;;;;;;;;;;;;;;12.12;64.84;100870.31;5074089;28;19923;-30
2022/10/14 01:28:15;;;;;;;;;;;;;;;12.12;65.32;100870.31;5047991;28;19955;-30
2022/10/14 01:30:47;;;;;;;;;;;;;;;12.10;65.45;100861.56;5068214;28;19947;-30
2022/10/14 01:33:23;;;;;;;;;;;;;;;12.09;65.15;100854.50;5055653;28;20374;-30
2022/10/14 01:36:07;;;;;;;;;;;;;;;12.10;64.71;100857.13;5050483;28;19920;-30
2022/10/14 01:38:40;;;;;;;;;;;;;;;12.11;64.80;100853.59;5066729;28;20290;-30
2022/10/14 01:41:06;;;;;;;;;;;;;;;12.11;64.44;100864.19;5054109;28;19912;-30
2022/10/14 01:43:32;;;;;;;;;;;;;;;12.12;64.65;100855.34;5054558;28;20167;-30
2022/10/14 01:45:57;;;;;;;;;;;;;;;12.12;64.48;100858.00;5073053;28;19908;-30
2022/10/14 01:48:23;;;;;;;;;;;;;;;12.12;64.44;100857.09;5050956;28;19966;-30
2022/10/14 01:50:52;;;;;;;;;;;;;;;12.13;64.72;100859.72;5054062;28;19995;-30
2022/10/14 01:53:18;;;;;;;;;;;;;;;12.12;64.57;100855.34;5053259;28;19912;-30
2022/10/14 01:55:45;;;;;;;;;;;;;;;12.14;64.58;100852.69;5073871;28;19912;-30
2022/10/14 01:58:11;;;;;;;;;;;;;;;12.13;64.65;100846.50;5053793;28;19920;-30
2022/10/14 02:00:37;;;;;;;;;;;;;;;12.12;64.65;100844.78;5051053;28;19913;-30
2022/10/14 02:03:02;;;;;;;;;;;;;;;12.13;65.00;100851.81;5053666;28;19965;-30
2022/10/14 02:05:31;;;;;;;;;;;;;;;12.12;64.72;100844.78;5073599;28;19912;-30
2022/10/14 02:07:57;;;;;;;;;;;;;;;12.13;64.56;100842.97;5054460;28;20298;-30
2022/10/14 02:10:28;;;;;;;;;;;;;;;12.13;64.61;100848.28;5055087;28;19957;-30
2022/10/14 02:13:02;;;;;;;;;;;;;;;12.12;64.18;100839.50;5069863;28;20379;-30
2022/10/14 02:15:37;;;;;;;;;;;;;;;12.12;64.05;100844.78;5062250;28;19942;-30
2022/10/14 02:18:05;;;;;;;;;;;;;;;12.12;64.34;100843.88;5070171;28;20350;-30
2022/10/14 02:20:36;;;;;;;;;;;;;;;12.12;64.45;100834.19;5053164;28;20378;-30
2022/10/14 02:23:05;;;;;;;;;;;;;;;12.12;64.28;100834.19;5047208;28;19928;-30
2022/10/14 02:25:30;;;;;;;;;;;;;;;12.12;64.32;100834.19;5070573;28;19912;-30
2022/10/14 02:27:56;;;;;;;;;;;;;;;12.12;64.72;100839.50;5047484;28;19966;-30
2022/10/14 02:30:21;;;;;;;;;;;;;;;12.13;64.38;100835.94;5051175;28;19912;-30
2022/10/14 02:32:56;;;;;;;;;;;;;;;12.13;64.63;100835.06;5072937;28;19954;-30
2022/10/14 02:35:24;;;;;;;;;;;;;;;12.13;64.62;100825.38;5047770;28;19923;-30
2022/10/14 02:37:49;;;;;;;;;;;;;;;12.12;64.71;100834.19;5054448;28;19965;-30
2022/10/14 02:40:32;;;;;;;;;;;;;;;12.12;64.86;100823.63;5047999;28;19916;-30
2022/10/14 02:43:06;;;;;;;;;;;;;;;12.13;64.77;100824.47;5049395;28;19962;-30
2022/10/14 02:45:31;;;;;;;;;;;;;;;12.12;64.46;100825.38;5067451;28;19982;-30
2022/10/14 02:48:12;;;;;;;;;;;;;;;12.12;64.54;100826.28;5052349;28;20256;-30
2022/10/14 02:50:37;;;;;;;;;;;;;;;12.13;64.46;100819.19;5063120;28;19916;-30
2022/10/14 02:53:02;;;;;;;;;;;;;;;12.12;64.55;100818.34;5070725;28;19965;-30
2022/10/14 02:55:28;;;;;;;;;;;;;;;12.13;64.96;100822.72;5064331;28;19922;-30
2022/10/14 02:57:53;;;;;;;;;;;;;;;12.13;64.70;100816.53;5071869;28;19920;-30
2022/10/14 03:00:18;;;;;;;;;;;;;;;12.13;64.89;100825.38;5070940;28;19912;-30
2022/10/14 03:02:43;;;;;;;;;;;;;;;12.13;64.92;100817.44;5053893;28;19916;-30
2022/10/14 03:05:09;;;;;;;;;;;;;;;12.12;65.16;100813.03;5071630;28;19920;-30
2022/10/14 03:07:34;;;;;;;;;;;;;;;12.11;64.66;100811.31;5069619;28;19924;-30
2022/10/14 03:09:59;;;;;;;;;;;;;;;12.12;64.57;100810.41;5064451;28;20351;-30
2022/10/14 03:12:31;;;;;;;;;;;;;;;12.12;64.76;100806.88;5069629;28;19912;-30
2022/10/14 03:14:56;;;;;;;;;;;;;;;12.11;65.01;100803.38;5067850;28;19920;-30
2022/10/14 03:17:21;;;;;;;;;;;;;;;12.11;64.87;100806.03;5072643;28;20283;-30
2022/10/14 03:19:46;;;;;;;;;;;;;;;12.10;64.71;100796.31;5049297;28;20375;-30
2022/10/14 03:22:11;;;;;;;;;;;;;;;12.10;64.78;100793.66;5070588;28;20359;-30
2022/10/14 03:24:37;;;;;;;;;;;;;;;12.10;65.04;100798.97;5072057;28;19923;-30
2022/10/14 03:27:02;;;;;;;;;;;;;;;12.08;64.73;100795.47;5071451;28;19966;-30
2022/10/14 03:29:30;;;;;;;;;;;;;;;12.09;64.57;100802.50;5068000;28;19946;-30
2022/10/14 03:31:55;;;;;;;;;;;;;;;12.09;64.89;100802.50;5070158;28;19920;-30
2022/10/14 03:34:20;;;;;;;;;;;;;;;12.09;64.89;100806.91;5049252;28;20329;-30
2022/10/14 03:36:46;;;;;;;;;;;;;;;12.09;64.72;100807.78;5069371;28;20310;-30
2022/10/14 03:39:14;;;;;;;;;;;;;;;12.07;64.84;100799.00;5070267;28;20362;-30
2022/10/14 03:41:39;;;;;;;;;;;;;;;12.06;64.99;100808.72;5067709;28;19912;-30
2022/10/14 03:44:05;;;;;;;;;;;;;;;12.06;64.80;100802.53;5069163;28;19923;-30
2022/10/14 03:46:30;;;;;;;;;;;;;;;12.06;64.69;100799.91;5068996;28;20081;-30
2022/10/14 03:48:55;;;;;;;;;;;;;;;12.05;64.59;100795.47;5068512;28;19912;-30
2022/10/14 03:51:21;;;;;;;;;;;;;;;12.05;64.48;100798.13;5067127;28;19978;-30
2022/10/14 03:53:48;;;;;;;;;;;;;;;12.04;64.75;100794.59;5070738;28;20324;-30
2022/10/14 03:56:13;;;;;;;;;;;;;;;12.03;64.70;100791.97;5069775;28;19951;-30
2022/10/14 03:58:38;;;;;;;;;;;;;;;12.02;64.75;100796.41;5069971;28;19940;-30
2022/10/14 04:01:04;;;;;;;;;;;;;;;12.02;65.00;100790.22;5058328;28;19950;-30
2022/10/14 04:03:29;;;;;;;;;;;;;;;12.01;65.08;100788.50;5070261;28;19916;-30
2022/10/14 04:05:54;;;;;;;;;;;;;;;11.99;64.74;100782.34;5048901;28;19996;-30
2022/10/14 04:08:19;;;;;;;;;;;;;;;11.99;64.88;100783.22;5069267;28;20011;-30
2022/10/14 04:10:45;;;;;;;;;;;;;;;11.98;64.81;100780.59;5069502;28;19999;-30
2022/10/14 04:13:10;;;;;;;;;;;;;;;11.97;65.19;100774.41;5069532;28;20010;-30
2022/10/14 04:15:35;;;;;;;;;;;;;;;11.98;64.85;100772.66;5067791;28;20378;-30
2022/10/14 04:18:10;;;;;;;;;;;;;;;11.96;64.55;100775.31;5067960;28;20287;-30
2022/10/14 04:20:36;;;;;;;;;;;;;;;11.95;65.00;100770.94;5066829;28;19955;-30
2022/10/14 04:23:01;;;;;;;;;;;;;;;11.94;65.23;100770.06;5066512;28;19960;-30
2022/10/14 04:25:26;;;;;;;;;;;;;;;11.94;65.16;100767.41;5069546;28;20317;-31
2022/10/14 04:27:51;;;;;;;;;;;;;;;11.94;65.21;100767.41;5072106;28;20275;-30
2022/10/14 04:30:16;;;;;;;;;;;;;;;11.93;65.01;100773.59;5064966;28;20401;-30
2022/10/14 04:32:42;;;;;;;;;;;;;;;11.94;65.13;100766.56;5062032;28;19969;-30
2022/10/14 04:35:08;;;;;;;;;;;;;;;11.93;64.80;100764.78;5066515;28;20334;-30
2022/10/14 04:37:33;;;;;;;;;;;;;;;11.93;65.06;100760.38;5069939;28;20049;-30
2022/10/14 04:39:59;;;;;;;;;;;;;;;11.92;64.80;100757.75;5069780;28;20002;-30
2022/10/14 04:42:24;;;;;;;;;;;;;;;11.91;65.12;100764.81;5066774;28;20011;-30
2022/10/14 04:44:49;;;;;;;;;;;;;;;11.90;64.84;100768.34;5068923;28;20038;-30
2022/10/14 04:47:14;;;;;;;;;;;;;;;11.90;64.83;100772.75;5070632;28;20010;-30
2022/10/14 04:49:40;;;;;;;;;;;;;;;11.89;64.79;100769.25;5070230;28;19995;-30
2022/10/14 04:52:05;;;;;;;;;;;;;;;11.88;64.83;100772.81;5062606;28;20050;-30
2022/10/14 04:54:33;;;;;;;;;;;;;;;11.87;64.86;100768.38;5068477;28;19917;-30
2022/10/14 04:56:58;;;;;;;;;;;;;;;11.87;64.79;100764.88;5064370;28;19913;-30
2022/10/14 04:59:24;;;;;;;;;;;;;;;11.85;64.78;100756.97;5064688;28;19919;-30
2022/10/14 05:01:49;;;;;;;;;;;;;;;11.84;65.15;100752.56;5062971;28;19912;-30
2022/10/14 05:04:14;;;;;;;;;;;;;;;11.84;65.16;100746.41;5067084;28;19916;-30
2022/10/14 05:06:39;;;;;;;;;;;;;;;11.84;64.84;100743.78;5069727;28;19913;-30
2022/10/14 05:09:05;;;;;;;;;;;;;;;11.79;65.19;100741.19;5069066;28;19913;-30
2022/10/14 05:11:30;;;;;;;;;;;;;;;11.78;65.22;100744.72;5064530;28;19916;-30
2022/10/14 05:13:55;;;;;;;;;;;;;;;11.78;65.13;100747.38;5061700;28;20359;-30
2022/10/14 05:16:21;;;;;;;;;;;;;;;11.76;65.25;100743.88;5063744;28;19916;-30
2022/10/14 05:18:46;;;;;;;;;;;;;;;11.74;65.57;100743.03;5048805;28;19919;-30
2022/10/14 05:21:11;;;;;;;;;;;;;;;11.73;65.15;100751.81;5063446;28;20330;-30
2022/10/14 05:23:36;;;;;;;;;;;;;;;11.72;65.44;100740.41;5050459;28;20290;-30
2022/10/14 05:26:03;;;;;;;;;;;;;;;11.68;65.41;100744.84;5068515;28;20382;-30
2022/10/14 05:28:28;;;;;;;;;;;;;;;11.68;65.24;100744.84;5071533;28;19909;-30
2022/10/14 05:30:54;;;;;;;;;;;;;;;11.66;65.50;100751.91;5068411;28;19912;-30
2022/10/14 05:33:19;;;;;;;;;;;;;;;11.65;65.41;100742.25;5070448;28;19962;-30
2022/10/14 05:35:45;;;;;;;;;;;;;;;11.64;65.61;100737.84;5067101;28;20359;-30
2022/10/14 05:38:11;;;;;;;;;;;;;;;11.62;65.40;100742.28;5070656;28;19973;-30
2022/10/14 05:40:36;;;;;;;;;;;;;;;11.60;65.57;100744.06;5072054;28;20006;-30
2022/10/14 05:43:01;;;;;;;;;;;;;;;11.59;65.59;100744.97;5069435;28;20015;-30
2022/10/14 05:45:26;;;;;;;;;;;;;;;11.57;65.68;100741.44;5070773;28;19916;-30
2022/10/14 05:47:52;;;;;;;;;;;;;;;11.55;65.86;100743.25;5063456;28;19916;-30
2022/10/14 05:50:17;;;;;;;;;;;;;;;11.53;65.85;100750.31;5053426;28;19930;-31
2022/10/14 05:52:44;;;;;;;;;;;;;;;11.54;65.82;100746.78;5071558;28;19913;-30
2022/10/14 05:55:09;;;;;;;;;;;;;;;11.50;65.64;100756.50;5070944;28;20444;-30
2022/10/14 05:57:34;;;;;;;;;;;;;;;11.49;66.17;100756.53;5054476;28;19913;-30
2022/10/14 05:59:59;;;;;;;;;;;;;;;11.48;66.20;100755.66;5050948;28;19999;-30
2022/10/14 06:02:25;;;;;;;;;;;;;;;11.48;66.26;100749.50;5073265;28;20325;-30
2022/10/14 06:04:50;;;;;;;;;;;;;;;11.46;65.82;100753.91;5053850;28;19962;-30
2022/10/14 06:07:15;;;;;;;;;;;;;;;11.44;66.17;100750.44;5070418;28;19916;-30
2022/10/14 06:09:41;;;;;;;;;;;;;;;11.45;65.97;100768.00;5072201;28;19964;-30
2022/10/14 06:12:06;;;;;;;;;;;;;;;11.42;66.24;100759.25;5052110;28;19912;-30
2022/10/14 06:14:31;;;;;;;;;;;;;;;11.42;66.94;100755.72;5056456;28;19951;-30
2022/10/14 06:16:57;;;;;;;;;;;;;;;11.38;67.06;100757.53;5071914;28;19935;-30
2022/10/14 06:19:22;;;;;;;;;;;;;;;11.37;66.31;100758.41;5072384;28;19918;-30
2022/10/14 06:21:47;;;;;;;;;;;;;;;11.37;66.96;100761.06;5074059;28;19916;-30
2022/10/14 06:24:13;;;;;;;;;;;;;;;11.38;66.87;100773.38;5069714;28;19994;-30
2022/10/14 06:26:39;;;;;;;;;;;;;;;11.38;66.84;100769.84;5070503;28;20302;-30
2022/10/14 06:29:04;;;;;;;;;;;;;;;11.38;66.72;100768.09;5071236;28;19919;-30
2022/10/14 06:31:29;;;;;;;;;;;;;;;11.39;66.88;100769.84;5071058;28;19909;-30
2022/10/14 06:33:54;;;;;;;;;;;;;;;11.40;66.66;100765.41;5074314;28;19913;-30
2022/10/14 06:36:19;;;;;;;;;;;;;;;11.38;67.04;100773.38;5072557;28;19918;-30
2022/10/14 06:38:45;;;;;;;;;;;;;;;11.38;67.11;100780.41;5073072;28;19913;-30
2022/10/14 06:41:11;;;;;;;;;;;;;;;11.38;66.34;100778.66;5074771;28;20366;-30
2022/10/14 06:43:36;;;;;;;;;;;;;;;11.38;66.26;100768.09;5056439;28;19978;-30
2022/10/14 06:46:02;;;;;;;;;;;;;;;11.41;66.21;100773.31;5072442;28;20358;-30
2022/10/14 06:48:27;;;;;;;;;;;;;;;11.42;66.59;100775.09;5068875;28;19908;-30
2022/10/14 06:50:53;;;;;;;;;;;;;;;11.45;66.11;100773.28;5069371;28;20410;-30
2022/10/14 06:53:18;;;;;;;;;;;;;;;11.45;65.90;100774.19;5072880;28;20012;-30
2022/10/14 06:55:43;;;;;;;;;;;;;;;11.47;65.83;100776.81;5071825;28;20026;-30
2022/10/14 06:58:08;;;;;;;;;;;;;;;11.47;65.51;100772.38;5074007;28;20003;-30
2022/10/14 07:00:34;;;;;;;;;;;;;;;11.49;65.73;100772.38;5073980;28;20294;-30
2022/10/14 07:03:03;;;;;;;;;;;;;;;11.49;65.51;100770.63;5074350;28;20295;-30
2022/10/14 07:05:28;;;;;;;;;;;;;;;11.50;65.32;100771.47;5055069;28;20035;-30
2022/10/14 07:07:53;;;;;;;;;;;;;;;11.51;65.29;100766.16;5055141;28;20018;-30
2022/10/14 07:10:18;;;;;;;;;;;;;;;11.52;65.34;100760.03;5073824;28;19908;-30
2022/10/14 07:12:43;;;;;;;;;;;;;;;11.53;65.46;100761.75;5073808;28;20310;-30
2022/10/14 07:15:09;;;;;;;;;;;;;;;11.55;65.54;100767.88;5072983;28;19930;-30
2022/10/14 07:17:34;;;;;;;;;;;;;;;11.57;65.56;100775.78;5073240;28;20282;-30
2022/10/14 07:19:59;;;;;;;;;;;;;;;11.59;65.30;100776.66;5039043;28;19908;-30
2022/10/14 07:22:25;;;;;;;;;;;;;;;11.62;65.48;100774.00;5072647;28;19948;-30
2022/10/14 07:24:50;;;;;;;;;;;;;;;11.62;65.49;100774.00;5073617;28;20359;-30
2022/10/14 07:27:15;;;;;;;;;;;;;;;11.64;65.44;100780.13;5049147;28;19966;-30
2022/10/14 07:29:41;;;;;;;;;;;;;;;11.65;65.59;100771.31;5068651;28;19920;-30
2022/10/14 07:32:06;;;;;;;;;;;;;;;11.67;65.70;100769.50;5073718;28;19917;-30
2022/10/14 07:34:33;;;;;;;;;;;;;;;11.70;65.79;100767.75;5074047;28;20029;-30
2022/10/14 07:36:58;;;;;;;;;;;;;;;11.71;66.06;100766.84;5054020;28;20003;-30
2022/10/14 07:39:24;;;;;;;;;;;;;;;11.72;66.13;100764.19;5072501;28;19999;-30
2022/10/14 07:41:52;;;;;;;;;;;;;;;11.74;65.80;100758.88;5073370;28;20366;-30
2022/10/14 07:44:17;;;;;;;;;;;;;;;11.77;65.59;100759.69;5073354;28;19920;-30
2022/10/14 07:46:44;;;;;;;;;;;;;;;11.80;65.51;100770.25;5072535;28;20448;-30
2022/10/14 07:49:09;;;;;;;;;;;;;;;11.84;65.56;100764.94;5071910;28;19916;-30
2022/10/14 07:51:34;;;;;;;;;;;;;;;11.85;65.60;100770.19;5073320;28;19934;-30
2022/10/14 07:54:00;;;;;;;;;;;;;;;11.87;65.81;100770.16;5073008;28;19916;-30
2022/10/14 07:56:25;;;;;;;;;;;;;;;11.89;65.41;100768.38;5072274;28;19946;-31
2022/10/14 07:58:51;;;;;;;;;;;;;;;11.90;65.55;100765.72;5072999;28;19913;-31
2022/10/14 08:01:17;;;;;;;;;;;;;;;11.93;65.28;100762.16;5071189;28;20390;-30
2022/10/14 08:03:43;;;;;;;;;;;;;;;11.94;65.49;100762.13;5072535;28;19920;-31
2022/10/14 08:06:08;;;;;;;;;;;;;;;11.98;65.55;100756.81;5053988;28;19919;-30
2022/10/14 08:08:34;;;;;;;;;;;;;;;12.00;65.63;100757.69;5072823;28;20443;-30
2022/10/14 08:11:08;;;;;;;;;;;;;;;12.04;65.67;100759.38;5055121;28;19908;-30
2022/10/14 08:13:42;;;;;;;;;;;;;;;12.06;65.64;100765.53;5070505;28;19974;-30
2022/10/14 08:16:34;;;;;;;;;;;;;;;12.10;65.44;100761.94;5048091;28;19999;-30
2022/10/14 08:19:00;;;;;;;;;;;;;;;12.14;65.47;100774.22;5062249;28;20017;-30
2022/10/14 08:21:25;;;;;;;;;;;;;;;12.18;65.64;100760.06;5041601;28;19959;-30
2022/10/14 08:23:51;;;;;;;;;;;;;;;12.23;65.79;100756.47;5068237;28;19920;-30
2022/10/14 08:26:23;;;;;;;;;;;;;;;12.25;65.46;100760.88;5069123;28;19918;-30
2022/10/14 08:28:49;;;;;;;;;;;;;;;12.29;66.06;100761.69;5045839;28;19912;-30
2022/10/14 08:31:14;;;;;;;;;;;;;;;12.31;65.70;100766.03;5034760;28;19909;-30
2022/10/14 08:33:39;;;;;;;;;;;;;;;12.35;65.62;100752.78;5065487;28;19912;-30
2022/10/14 08:36:05;;;;;;;;;;;;;;;12.37;65.72;100757.16;5071064;28;19916;-30
2022/10/14 08:38:31;;;;;;;;;;;;;;;12.41;65.60;100756.19;5043884;28;19922;-31
2022/10/14 08:41:12;;;;;;;;;;;;;;;12.43;65.85;100759.72;5071401;28;20325;-30
2022/10/14 08:43:42;;;;;;;;;;;;;;;12.48;65.73;100758.75;5052622;28;19913;-30
2022/10/14 08:46:30;;;;;;;;;;;;;;;12.52;66.07;100752.53;5053487;28;20295;-31
2022/10/14 08:49:01;;;;;;;;;;;;;;;12.59;67.18;100759.47;5059334;28;20381;-30
2022/10/14 08:51:26;;;;;;;;;;;;;;;12.65;68.12;100758.50;5036656;28;19943;-31
2022/10/14 08:53:55;;;;;;;;;;;;;;;12.77;70.94;100752.13;5072125;28;19952;-30
2022/10/14 08:56:23;;;;;;;;;;;;;;;12.82;70.34;100753.81;5068708;28;20383;-31
2022/10/14 08:58:49;;;;;;;;;;;;;;;12.93;72.00;100752.72;5070189;28;19955;-31
2022/10/14 09:01:28;;;;;;;;;;;;;;;13.01;71.16;100749.94;5054685;28;19908;-31
2022/10/14 09:03:56;;;;;;;;;;;;;;;13.13;71.73;100749.72;5069658;28;19947;-31
2022/10/14 09:06:28;;;;;;;;;;;;;;;13.24;71.98;100757.44;5050754;28;19917;-31
2022/10/14 09:08:55;;;;;;;;;;;;;;;13.40;73.74;100752.75;5050385;28;19909;-31
2022/10/14 09:11:24;;;;;;;;;;;;;;;13.55;74.72;100750.72;5050126;28;20440;-31
2022/10/14 09:13:56;;;;;;;;;;;;;;;13.64;74.22;100753.16;5062739;28;19983;-31
2022/10/14 09:16:22;;;;;;;;;;;;;;;13.72;73.79;100751.25;5057757;28;19943;-31
2022/10/14 09:18:52;;;;;;;;;;;;;;;13.80;73.35;100740.47;5053986;28;19916;-31
2022/10/14 09:21:37;;;;;;;;;;;;;;;13.92;73.04;100744.66;5054269;28;20011;-31
2022/10/14 09:24:11;;;;;;;;;;;;;;;14.04;72.92;100745.28;5070933;28;19920;-31
2022/10/14 09:26:40;;;;;;;;;;;;;;;14.14;72.41;100741.50;5039399;28;20332;-30
2022/10/14 09:29:15;;;;;;;;;;;;;;;14.31;72.91;100742.91;5017145;28;19915;-31
2022/10/14 09:31:40;;;;;;;;;;;;;;;14.40;72.82;100740.00;5066531;28;19916;-31
2022/10/14 09:34:07;;;;;;;;;;;;;;;14.49;72.67;100744.22;5060272;28;19920;-31
2022/10/14 09:36:34;;;;;;;;;;;;;;;14.53;71.77;100740.59;5059174;28;19931;-31
2022/10/14 09:38:59;;;;;;;;;;;;;;;14.62;72.28;100744.81;5055538;28;19912;-31
2022/10/14 09:41:27;;;;;;;;;;;;;;;14.69;72.38;100742.88;5054383;28;19908;-31
2022/10/14 09:44:11;;;;;;;;;;;;;;;14.77;71.35;100738.25;5056500;28;19921;-31
2022/10/14 09:46:36;;;;;;;;;;;;;;;14.86;70.93;100737.16;5062124;28;20016;-30
2022/10/14 09:49:01;;;;;;;;;;;;;;;14.92;70.33;100730.81;5057124;28;20370;-30
2022/10/14 09:51:30;;;;;;;;;;;;;;;14.98;69.99;100725.34;5057445;28;20401;-30
2022/10/14 09:54:02;;;;;;;;;;;;;;;15.05;69.55;100731.38;5053903;28;20349;-31
2022/10/14 09:56:33;;;;;;;;;;;;;;;15.13;69.90;100740.00;5061646;28;20262;-30
2022/10/14 09:58:58;;;;;;;;;;;;;;;15.18;69.36;100723.94;5065061;28;19958;-30
2022/10/14 10:01:25;;;;;;;;;;;;;;;15.25;69.57;100729.00;5074817;28;19908;-30
2022/10/14 10:03:50;;;;;;;;;;;;;;;15.30;69.31;100718.25;5056227;28;19924;-31
2022/10/14 10:06:21;;;;;;;;;;;;;;;15.34;68.87;100711.09;5063431;28;19908;-31
2022/10/14 10:08:58;;;;;;;;;;;;;;;15.40;69.16;100716.22;5054975;28;19908;-31
2022/10/14 10:11:32;;;;;;;;;;;;;;;15.44;68.89;100712.56;5057487;28;19908;-30
2022/10/14 10:14:14;;;;;;;;;;;;;;;15.51;68.84;100713.28;5073519;28;19919;-30
2022/10/14 10:16:39;;;;;;;;;;;;;;;15.58;68.91;100716.59;5042208;28;19908;-30
2022/10/14 10:19:26;;;;;;;;;;;;;;;15.62;68.74;100716.47;5054658;28;20236;-31
2022/10/14 10:21:51;;;;;;;;;;;;;;;15.67;68.53;100716.31;5038481;28;19923;-31
2022/10/14 10:24:20;;;;;;;;;;;;;;;15.73;67.86;100720.59;5067747;28;19916;-31
2022/10/14 10:26:46;;;;;;;;;;;;;;;15.77;67.92;100714.25;5073426;28;19998;-30
2022/10/14 10:29:21;;;;;;;;;;;;;;;15.82;67.61;100707.03;5074661;28;20253;-30
2022/10/14 10:31:50;;;;;;;;;;;;;;;15.88;67.61;100713.94;5057061;28;19912;-30
2022/10/14 10:34:34;;;;;;;;;;;;;;;15.93;67.84;100703.19;5052391;28;20374;-30
2022/10/14 10:37:04;;;;;;;;;;;;;;;15.99;68.02;100695.03;5054781;28;20009;-30
2022/10/14 10:39:46;;;;;;;;;;;;;;;16.04;68.18;100695.72;5063256;28;19908;-31
2022/10/14 10:42:28;;;;;;;;;;;;;;;16.13;68.48;100694.56;5074575;28;19919;-31
2022/10/14 10:44:59;;;;;;;;;;;;;;;16.19;68.14;100697.06;5059776;28;19921;-31
2022/10/14 10:47:41;;;;;;;;;;;;;;;16.28;67.96;100698.53;5053021;28;19908;-31
2022/10/14 10:50:23;;;;;;;4.90;2.60;;;;;;;16.36;67.58;100690.28;5053923;28;19909;-31
2022/10/14 10:53:23;;;;;;;3.88;2.42;;;;;;;16.44;67.11;100676.75;5039849;28;20029;-31
2022/10/14 10:56:12;;;;;;;3.90;2.08;;;;;;;16.52;66.76;100674.69;5072513;28;20570;-31
2022/10/14 10:58:58;;;;;;;;;;;;;;;16.60;66.32;100669.13;5054543;28;20032;-31
2022/10/14 11:01:42;;;;;;;;;;;;;;;16.64;66.04;100668.09;5074367;28;19908;-31
2022/10/14 11:04:19;;;;;;;;;;;;;;;16.70;65.67;100667.00;5070545;28;19962;-31
2022/10/14 11:12:41;;;;;;;;;;;;;;;16.88;65.22;100661.00;5057354;28;20089;-31
2022/10/14 11:15:22;;;;;;;;;;;;;;;16.92;64.60;100662.66;5070845;28;19916;-31
2022/10/14 11:17:48;;;;;;;;;;;;;;;16.95;64.71;100651.00;5048173;28;19946;-31
2022/10/14 11:20:36;;;;;;;;;;;;;;;17.00;64.46;100648.16;5052844;28;20310;-31
2022/10/14 11:23:20;;;;;;;;;;;;;;;17.04;64.49;100655.13;5063574;28;20295;-31
2022/10/14 11:25:57;;;;;;;;;;;;;;;17.07;64.12;100649.72;5066780;28;19922;-31
2022/10/14 11:28:35;;;;;;;;;;;;;;;17.10;64.30;100644.28;5062532;28;19912;-31
2022/10/14 11:31:16;;;;;;;;;;;;;;;17.14;64.18;100640.56;5065080;28;19918;-31
2022/10/14 11:34:00;;;;;;;;;;;;;;;17.19;64.17;100632.41;5046308;28;19912;-30
2022/10/14 11:36:34;;;;;;;;;;;;;;;17.21;64.21;100619.91;5062293;28;20394;-31
2022/10/14 11:39:25;;;;;;;;;;;;;;;17.26;64.38;100617.03;5071711;28;20390;-31
2022/10/14 11:42:12;;;;;;;5.13;2.35;;;;;;;17.30;64.45;100618.66;5047042;28;19999;-32
2022/10/14 11:44:39;;;;;;;3.88;2.35;;;;;;;17.34;64.27;100608.78;5045798;28;20028;-32
2022/10/14 11:47:22;;;;;;;4.00;2.30;;;;;;;17.36;64.01;100607.78;5051556;28;20059;-32
2022/10/14 11:50:31;;;;;;;2.97;1.98;;;;;;;17.39;63.92;100607.66;5051926;28;20115;-32
2022/10/14 11:53:16;;;;;;;3.80;2.10;;;;;;;17.43;64.14;100598.63;5024070;28;20423;-31
2022/10/14 11:55:45;;;;;;;3.63;2.13;;;;;;;17.49;64.15;100600.16;5034649;28;20483;-32
2022/10/14 11:58:17;;;;;;;2.97;1.90;;;;;;;17.53;64.36;100588.44;5051355;28;20024;-32
2022/10/14 12:00:44;;;;;;;3.67;1.98;;;;;;;17.59;64.34;100592.66;5067328;28;20513;-32
2022/10/14 12:03:47;;;;;;;3.65;2.20;;;;;;;17.65;64.30;100580.88;5064506;28;20491;-32
2022/10/14 12:06:21;;;;;;;2.65;1.85;;;;;;;17.74;64.10;100590.31;5069482;28;20028;-32
2022/10/14 12:08:54;;;;;;;3.38;1.73;;;;;;;17.79;64.30;100594.53;5070497;28;20499;-32
2022/10/14 12:11:52;;;;;;;2.80;1.63;;;;;;;17.87;63.30;100588.03;5047061;28;20039;-32
2022/10/14 12:14:28;;;;;;;2.60;1.63;;;;;;;17.94;63.13;100576.19;5055003;28;20075;-32
2022/10/14 12:16:56;;;;;;;3.35;1.70;;;;;;;17.98;63.16;100567.09;5069015;28;20033;-32
2022/10/14 12:19:24;;;;;;;2.30;1.70;;;;;;;18.07;63.47;100571.16;5068019;28;20491;-32
2022/10/14 12:21:56;;;;;;;4.43;1.73;;;;;;;18.16;63.21;100575.28;5068329;28;20070;-31
2022/10/14 12:24:34;;;;;;;2.47;1.70;;;;;;;18.17;62.82;100569.88;5027947;28;20071;-32
2022/10/14 12:27:01;;;;;;;3.75;1.70;;;;;;;18.24;62.74;100556.28;5041151;28;20103;-32
2022/10/14 12:29:40;;;;;;;2.85;1.88;;;;;;;18.29;62.71;100560.47;5032528;28;20025;-32
2022/10/14 12:32:18;;;;;;;2.63;1.60;;;;;;;18.39;62.79;100560.06;5060306;28;20033;-32
2022/10/14 12:34:45;;;;;;;3.42;1.65;;;;;;;18.45;62.49;100549.13;5034032;28;20179;-32
2022/10/14 12:37:23;;;;;;;2.55;1.45;;;;;;;18.49;62.30;100547.19;5050891;28;20032;-32
2022/10/14 12:39:50;;;;;;;2.20;1.48;;;;;;;18.54;61.54;100551.38;5068262;28;20052;-32
2022/10/14 12:42:18;;;;;;;2.08;1.40;;;;;;;18.62;61.70;100550.16;5052458;28;20028;-32
2022/10/14 12:44:47;;;;;;;2.42;1.50;;;;;;;18.65;61.84;100545.56;5066996;28;20031;-32
2022/10/14 12:47:31;;;;;;;;;;;;;;;18.76;61.56;100554.88;5033405;28;20055;-32